Time;durP1;ratioP1;P1;durP2;ratioP2;P2;SDS_P1;SDS_P2;PMS_P1;PMS_P2;Temp;Humidity;BMP_temperature;BMP_pressure;BME280_temperature;BME280_humidity;BME280_pressure;Samples;Min_cycle;Max_cycle;Signal;HPM_P1;HPM_P2
2023/04/09 00:02:11;;;;;;;44.63;32.80;;;8.30;99.90;;;;;;5019648;28;20411;-76
2023/04/09 00:04:37;;;;;;;42.78;31.50;;;8.30;99.90;;;;;;5019458;28;20052;-76
2023/04/09 00:07:02;;;;;;;44.45;32.10;;;8.20;99.90;;;;;;5008373;28;20523;-76
2023/04/09 00:09:28;;;;;;;42.33;32.05;;;8.20;99.90;;;;;;5017606;28;20061;-75
2023/04/09 00:11:53;;;;;;;43.47;31.40;;;8.20;99.90;;;;;;5020112;28;20052;-75
2023/04/09 00:14:19;;;;;;;44.88;32.45;;;8.30;99.90;;;;;;5018292;28;20187;-75
2023/04/09 00:16:44;;;;;;;44.25;32.42;;;8.20;99.90;;;;;;5019188;28;20049;-75
2023/04/09 00:19:10;;;;;;;45.90;33.00;;;8.30;99.90;;;;;;5018117;28;20496;-76
2023/04/09 00:21:36;;;;;;;44.95;30.88;;;8.10;99.90;;;;;;5019164;28;20034;-76
2023/04/09 00:24:02;;;;;;;42.92;31.83;;;8.40;99.90;;;;;;5014446;28;20093;-76
2023/04/09 00:26:27;;;;;;;44.75;31.88;;;8.10;99.90;;;;;;5017006;28;20042;-76
2023/04/09 00:28:54;;;;;;;43.45;32.15;;;8.10;99.90;;;;;;5019425;28;20046;-76
2023/04/09 00:31:20;;;;;;;44.17;34.22;;;8.00;99.90;;;;;;5017544;28;20053;-76
2023/04/09 00:33:45;;;;;;;42.40;31.73;;;8.20;99.90;;;;;;5018617;28;20052;-75
2023/04/09 00:36:11;;;;;;;43.22;33.33;;;8.20;99.90;;;;;;5017871;28;20054;-76
2023/04/09 00:38:36;;;;;;;43.63;31.55;;;8.10;99.90;;;;;;5006205;28;20030;-76
2023/04/09 00:41:02;;;;;;;45.05;32.22;;;8.10;99.90;;;;;;5019498;28;20052;-76
2023/04/09 00:43:28;;;;;;;44.70;33.08;;;8.10;99.90;;;;;;5018871;28;20034;-75
2023/04/09 00:45:54;;;;;;;43.90;33.95;;;8.20;99.90;;;;;;5021144;28;20551;-76
2023/04/09 00:48:20;;;;;;;45.80;33.10;;;8.00;99.90;;;;;;5020028;28;20041;-75
2023/04/09 00:50:46;;;;;;;44.80;31.58;;;8.10;99.90;;;;;;5020744;28;20053;-75
2023/04/09 00:53:13;;;;;;;43.40;32.17;;;8.10;99.90;;;;;;5024425;27;20044;-75
2023/04/09 00:55:39;;;;;;;46.60;32.17;;;8.10;99.90;;;;;;5017058;27;20395;-75
2023/04/09 00:58:05;;;;;;;47.30;32.45;;;8.10;99.90;;;;;;5063194;27;20109;-75
2023/04/09 01:00:31;;;;;;;47.90;34.40;;;8.00;99.90;;;;;;5106304;28;20047;-75
2023/04/09 01:02:57;;;;;;;42.95;32.70;;;8.10;99.90;;;;;;5103122;27;20054;-75
2023/04/09 01:05:30;;;;;;;46.30;34.25;;;8.10;99.90;;;;;;5102400;27;20443;-75
2023/04/09 01:08:15;;;;;;;46.30;32.47;;;8.10;99.90;;;;;;5107662;28;20130;-75
2023/04/09 01:10:46;;;;;;;48.60;34.90;;;8.10;99.90;;;;;;5109562;28;20047;-76
2023/04/09 01:13:29;;;;;;;46.25;33.55;;;8.00;99.90;;;;;;5110202;28;20044;-76
2023/04/09 01:16:02;;;;;;;46.97;33.30;;;8.00;99.90;;;;;;5109888;28;20177;-76
2023/04/09 01:18:38;;;;;;;46.20;33.40;;;8.00;99.90;;;;;;5108458;28;20035;-75
2023/04/09 01:21:09;;;;;;;46.60;32.05;;;8.00;99.90;;;;;;5109488;28;20040;-74
2023/04/09 01:23:53;;;;;;;45.78;33.13;;;7.90;99.90;;;;;;5108603;28;20043;-74
2023/04/09 01:26:50;;;;;;;46.03;34.15;;;8.10;99.90;;;;;;5105918;28;20043;-74
2023/04/09 01:29:18;;;;;;;51.60;34.88;;;7.90;99.90;;;;;;5108577;28;20480;-74
2023/04/09 01:31:44;;;;;;;44.63;33.05;;;7.90;99.90;;;;;;5103983;28;20096;-73
2023/04/09 01:34:11;;;;;;;44.92;33.60;;;7.80;99.90;;;;;;5102525;28;20036;-74
2023/04/09 01:36:39;;;;;;;47.83;34.15;;;7.90;99.90;;;;;;5105455;28;20063;-73
2023/04/09 01:39:05;;;;;;;;;;;7.90;99.90;;;;;;5084129;28;20067;-74
2023/04/09 01:41:33;;;;;;;46.97;32.97;;;7.80;99.90;;;;;;5100555;28;19966;-74
2023/04/09 01:44:00;;;;;;;;;;;7.90;99.90;;;;;;5099696;28;20048;-74
2023/04/09 01:46:26;;;;;;;51.70;35.22;;;7.90;99.90;;;;;;5099937;28;19927;-74
2023/04/09 01:48:52;;;;;;;50.45;35.58;;;7.90;99.90;;;;;;5097236;28;20413;-74
2023/04/09 01:51:18;;;;;;;49.10;34.95;;;7.80;99.90;;;;;;5101191;27;20049;-74
2023/04/09 01:53:44;;;;;;;48.30;35.85;;;7.90;99.90;;;;;;5100370;27;20052;-74
2023/04/09 01:56:10;;;;;;;48.60;35.80;;;7.90;99.90;;;;;;5099871;27;20114;-75
2023/04/09 01:58:35;;;;;;;48.03;35.20;;;7.80;99.90;;;;;;5054957;28;20472;-75
2023/04/09 02:01:08;;;;;;;51.03;36.08;;;7.90;99.90;;;;;;5020702;28;20045;-75
2023/04/09 02:03:47;;;;;;;53.83;35.95;;;7.90;99.90;;;;;;5025582;28;20201;-75
2023/04/09 02:06:27;;;;;;;52.60;36.83;;;7.90;99.90;;;;;;5021789;27;20095;-75
2023/04/09 02:08:53;;;;;;;52.97;36.33;;;7.90;99.90;;;;;;5028167;28;20094;-75
2023/04/09 02:11:22;;;;;;;54.42;38.28;;;7.90;99.90;;;;;;5024997;27;20830;-75
2023/04/09 02:13:52;;;;;;;54.60;37.70;;;7.80;99.90;;;;;;5022908;28;20157;-75
2023/04/09 02:16:19;;;;;;;50.50;36.60;;;7.90;99.90;;;;;;5023783;28;20045;-75
2023/04/09 02:18:45;;;;;;;48.17;35.50;;;7.90;99.90;;;;;;5022703;28;20045;-75
2023/04/09 02:21:12;;;;;;;50.03;37.20;;;7.90;99.90;;;;;;5023815;28;20037;-75
2023/04/09 02:23:38;;;;;;;54.38;38.17;;;7.90;99.90;;;;;;5023480;28;20045;-75
2023/04/09 02:26:03;;;;;;;52.13;37.47;;;7.80;99.90;;;;;;5021841;28;20396;-75
2023/04/09 02:28:29;;;;;;;50.72;38.30;;;7.80;99.90;;;;;;5019484;28;20041;-75
2023/04/09 02:30:55;;;;;;;55.90;38.10;;;7.80;99.90;;;;;;5025652;28;21569;-74
2023/04/09 02:33:21;;;;;;;55.53;39.28;;;7.80;99.90;;;;;;5033831;28;20048;-75
2023/04/09 02:35:46;;;;;;;55.72;39.10;;;7.80;99.90;;;;;;5092965;28;20049;-74
2023/04/09 02:38:13;;;;;;;53.35;37.95;;;7.80;99.90;;;;;;5092601;28;20455;-75
2023/04/09 02:40:40;;;;;;;52.72;37.13;;;7.80;99.90;;;;;;5020107;28;20066;-75
2023/04/09 02:43:06;;;;;;;51.53;37.58;;;7.80;99.90;;;;;;5013973;28;20053;-75
2023/04/09 02:45:32;;;;;;;51.30;37.70;;;7.80;99.90;;;;;;5019710;28;20161;-76
2023/04/09 02:47:57;;;;;;;53.08;38.85;;;7.80;99.90;;;;;;5088570;27;20073;-75
2023/04/09 02:50:23;;;;;;;50.03;35.65;;;7.90;99.90;;;;;;5023161;28;20136;-75
2023/04/09 02:52:49;;;;;;;49.10;35.75;;;7.90;99.90;;;;;;5026465;28;20036;-75
2023/04/09 02:55:15;;;;;;;51.17;37.33;;;7.80;99.90;;;;;;5027466;28;20116;-76
2023/04/09 02:57:40;;;;;;;47.28;34.10;;;7.80;99.90;;;;;;5027808;28;20072;-76
2023/04/09 03:00:07;;;;;;;55.20;36.53;;;7.80;99.90;;;;;;5090568;27;20062;-74
2023/04/09 03:02:33;;;;;;;49.00;35.80;;;7.80;99.90;;;;;;5087183;27;20041;-74
2023/04/09 03:04:59;;;;;;;49.50;34.55;;;7.80;99.90;;;;;;5022977;28;20113;-74
2023/04/09 03:07:24;;;;;;;51.95;35.83;;;7.80;99.90;;;;;;5021767;28;20073;-75
2023/04/09 03:09:50;;;;;;;48.78;35.58;;;7.80;99.90;;;;;;5089365;28;20072;-75
2023/04/09 03:12:16;;;;;;;51.30;35.00;;;7.80;99.90;;;;;;5026161;28;20094;-75
2023/04/09 03:14:41;;;;;;;53.75;36.33;;;7.80;99.90;;;;;;5086055;28;20480;-75
2023/04/09 03:17:07;;;;;;;52.22;35.10;;;7.90;99.90;;;;;;5020978;28;20060;-74
2023/04/09 03:19:33;;;;;;;52.35;34.95;;;7.80;99.90;;;;;;5025768;27;20050;-74
2023/04/09 03:21:58;;;;;;;44.03;33.83;;;7.80;99.90;;;;;;5025471;28;20060;-74
2023/04/09 03:24:24;;;;;;;49.17;34.20;;;7.90;99.90;;;;;;5020834;27;20043;-74
2023/04/09 03:26:50;;;;;;;48.25;34.05;;;7.90;99.90;;;;;;5023085;28;20137;-74
2023/04/09 03:29:15;;;;;;;48.85;35.40;;;7.90;99.90;;;;;;5021082;28;20074;-74
2023/04/09 03:31:41;;;;;;;51.75;36.70;;;7.90;99.90;;;;;;5018340;28;20041;-74
2023/04/09 03:34:07;;;;;;;54.22;36.45;;;7.80;99.90;;;;;;5022060;28;20038;-74
2023/04/09 03:36:32;;;;;;;47.58;34.47;;;7.90;99.90;;;;;;5022392;28;20088;-74
2023/04/09 03:38:59;;;;;;;49.42;35.00;;;7.80;99.90;;;;;;5022729;28;20120;-74
2023/04/09 03:41:25;;;;;;;51.58;35.97;;;7.90;99.90;;;;;;5087079;27;20053;-76
2023/04/09 03:43:51;;;;;;;50.00;35.25;;;7.80;99.90;;;;;;5019290;27;20097;-74
2023/04/09 03:46:17;;;;;;;49.15;35.85;;;7.80;99.90;;;;;;5018186;27;20041;-74
2023/04/09 03:48:43;;;;;;;50.17;37.15;;;7.80;99.90;;;;;;5081470;27;20391;-74
2023/04/09 03:51:13;;;;;;;51.97;36.17;;;7.90;99.90;;;;;;5019766;28;20090;-74
2023/04/09 03:53:39;;;;;;;55.65;36.20;;;7.80;99.90;;;;;;5012942;27;20048;-74
2023/04/09 03:56:05;;;;;;;47.60;35.20;;;7.80;99.90;;;;;;5018121;28;20513;-73
2023/04/09 03:58:31;;;;;;;49.80;36.10;;;7.80;99.90;;;;;;5020986;28;20069;-73
2023/04/09 04:00:56;;;;;;;50.67;34.30;;;7.80;99.90;;;;;;5018917;28;20037;-73
2023/04/09 04:03:22;;;;;;;50.40;36.30;;;7.80;99.90;;;;;;5020148;28;20282;-74
2023/04/09 04:05:48;;;;;;;50.53;35.78;;;7.80;99.90;;;;;;5070603;28;20567;-75
2023/04/09 04:08:13;;;;;;;48.55;34.95;;;7.80;99.90;;;;;;5021659;28;20045;-76
2023/04/09 04:10:39;;;;;;;47.63;34.97;;;7.70;99.90;;;;;;5027165;28;20041;-76
2023/04/09 04:13:08;;;;;;;46.97;34.67;;;7.70;99.90;;;;;;5020200;28;20037;-75
2023/04/09 04:15:43;;;;;;;46.25;35.55;;;7.70;99.90;;;;;;5024873;28;20602;-75
2023/04/09 04:18:09;;;;;;;44.78;31.83;;;7.70;99.90;;;;;;5027147;28;20052;-74
2023/04/09 04:20:36;;;;;;;45.35;33.45;;;7.80;99.90;;;;;;5027716;28;20120;-74
2023/04/09 04:23:02;;;;;;;45.50;33.20;;;7.70;99.90;;;;;;5027021;28;20045;-74
2023/04/09 04:25:28;;;;;;;44.25;31.95;;;7.80;99.90;;;;;;5026909;28;20033;-75
2023/04/09 04:27:54;;;;;;;43.38;31.95;;;7.80;99.90;;;;;;5025412;28;20060;-74
2023/04/09 04:30:20;;;;;;;45.33;32.40;;;7.80;99.90;;;;;;5026069;28;20090;-74
2023/04/09 04:32:47;;;;;;;43.25;32.17;;;7.80;99.90;;;;;;5073570;28;20368;-74
2023/04/09 04:35:12;;;;;;;41.85;32.33;;;7.70;99.90;;;;;;5026767;28;20044;-74
2023/04/09 04:37:39;;;;;;;43.08;31.55;;;7.80;99.90;;;;;;5027268;28;20432;-73
2023/04/09 04:40:07;;;;;;;38.33;30.35;;;7.70;99.90;;;;;;5092327;28;20140;-75
2023/04/09 04:42:33;;;;;;;43.97;31.65;;;7.80;99.90;;;;;;5020683;28;20095;-74
2023/04/09 04:44:59;;;;;;;40.67;31.85;;;7.70;99.90;;;;;;5086878;28;20143;-74
2023/04/09 04:47:25;;;;;;;42.22;31.38;;;7.80;99.90;;;;;;5022939;28;20140;-74
2023/04/09 04:49:50;;;;;;;43.17;31.92;;;7.70;99.90;;;;;;5022701;28;20464;-74
2023/04/09 04:52:16;;;;;;;41.88;32.58;;;7.70;99.90;;;;;;5024661;28;20071;-74
2023/04/09 04:54:42;;;;;;;39.97;31.38;;;7.80;99.90;;;;;;5021367;28;20198;-75
2023/04/09 04:57:08;;;;;;;45.00;33.00;;;7.80;99.90;;;;;;5022462;27;20105;-75
2023/04/09 04:59:37;;;;;;;42.58;32.50;;;7.80;99.90;;;;;;5020862;28;20141;-75
2023/04/09 05:02:03;;;;;;;43.60;33.97;;;7.70;99.90;;;;;;5021307;28;20132;-74
2023/04/09 05:04:29;;;;;;;43.55;33.40;;;7.80;99.90;;;;;;5022765;28;21266;-75
2023/04/09 05:06:55;;;;;;;45.08;34.22;;;7.80;99.90;;;;;;5020357;28;20072;-74
2023/04/09 05:09:20;;;;;;;43.17;33.75;;;7.80;99.90;;;;;;5084849;27;20160;-74
2023/04/09 05:11:46;;;;;;;44.70;34.67;;;7.70;99.90;;;;;;5019382;28;20487;-75
2023/04/09 05:14:12;;;;;;;41.92;33.90;;;7.70;99.90;;;;;;5085771;28;20366;-75
2023/04/09 05:16:37;;;;;;;44.97;33.78;;;7.70;99.90;;;;;;5024099;28;20128;-73
2023/04/09 05:19:03;;;;;;;44.03;33.60;;;7.70;99.90;;;;;;5019511;27;20121;-73
2023/04/09 05:21:30;;;;;;;46.30;32.78;;;7.70;99.90;;;;;;5021070;28;20049;-73
2023/04/09 05:23:56;;;;;;;42.85;32.55;;;7.70;99.90;;;;;;5070201;28;20057;-73
2023/04/09 05:26:21;;;;;;;42.22;32.75;;;7.70;99.90;;;;;;5021266;28;20048;-74
2023/04/09 05:28:47;;;;;;;44.38;33.20;;;7.80;99.90;;;;;;5070769;28;20053;-74
2023/04/09 05:31:14;;;;;;;46.30;34.28;;;7.70;99.90;;;;;;5023077;28;20096;-74
2023/04/09 05:33:40;;;;;;;41.15;32.20;;;7.70;99.90;;;;;;5085299;27;20050;-73
2023/04/09 05:36:06;;;;;;;45.00;33.50;;;7.70;99.90;;;;;;5017765;28;20495;-75
2023/04/09 05:38:32;;;;;;;45.42;32.72;;;7.70;99.90;;;;;;5019077;28;20072;-76
2023/04/09 05:40:58;;;;;;;48.17;34.67;;;7.70;99.90;;;;;;5022536;28;20045;-76
2023/04/09 05:43:24;;;;;;;40.80;31.55;;;7.70;99.90;;;;;;5086219;28;20068;-76
2023/04/09 05:45:50;;;;;;;41.03;31.80;;;7.70;99.90;;;;;;5086070;27;20045;-76
2023/04/09 05:48:17;;;;;;;43.15;33.17;;;7.70;99.90;;;;;;5020949;28;20487;-76
2023/04/09 05:50:49;;;;;;;43.45;32.42;;;7.80;99.90;;;;;;5020724;28;20507;-74
2023/04/09 05:53:15;;;;;;;43.75;33.25;;;7.80;99.90;;;;;;5021915;28;20041;-74
2023/04/09 05:55:41;;;;;;;41.42;31.70;;;7.80;99.90;;;;;;5020028;28;20052;-74
2023/04/09 05:58:06;;;;;;;40.42;30.48;;;8.00;99.90;;;;;;5019586;28;20068;-74
2023/04/09 06:00:32;;;;;;;40.05;30.58;;;7.90;99.90;;;;;;5022263;28;20057;-74
2023/04/09 06:02:57;;;;;;;41.50;31.42;;;7.90;99.90;;;;;;5021930;28;20042;-74
2023/04/09 06:05:23;;;;;;;43.22;32.00;;;8.00;99.90;;;;;;5021091;28;20079;-75
2023/04/09 06:07:49;;;;;;;45.97;33.20;;;8.00;99.90;;;;;;5019718;28;20479;-74
2023/04/09 06:10:14;;;;;;;45.20;32.45;;;8.10;99.90;;;;;;5091785;28;20036;-74
2023/04/09 06:12:40;;;;;;;46.70;34.45;;;8.20;99.90;;;;;;5027305;28;20042;-74
2023/04/09 06:15:06;;;;;;;45.25;33.15;;;8.50;99.90;;;;;;5092513;28;21158;-75
2023/04/09 06:17:31;;;;;;;45.28;34.28;;;8.70;99.90;;;;;;5025433;28;20029;-75
2023/04/09 06:19:59;;;;;;;44.90;32.58;;;9.40;99.90;;;;;;5088552;28;20037;-73
2023/04/09 06:22:25;;;;;;;47.20;33.25;;;9.60;99.90;;;;;;5031281;28;20065;-75
2023/04/09 06:24:50;;;;;;;46.95;33.33;;;10.20;99.90;;;;;;5097994;28;20133;-75
2023/04/09 06:27:17;;;;;;;46.42;32.90;;;10.20;99.90;;;;;;5032498;28;20116;-74
2023/04/09 06:29:43;;;;;;;47.53;32.97;;;10.70;99.90;;;;;;5032362;27;20057;-74
2023/04/09 06:32:09;;;;;;;42.72;31.90;;;11.20;99.90;;;;;;5032312;28;20044;-74
2023/04/09 06:34:34;;;;;;;42.78;33.10;;;11.40;99.90;;;;;;5031526;28;20077;-73
2023/04/09 06:37:00;;;;;;;41.75;32.65;;;11.60;99.90;;;;;;5032014;28;20033;-73
2023/04/09 06:39:26;;;;;;;39.67;31.75;;;11.80;99.90;;;;;;5032325;28;20041;-74
2023/04/09 06:41:52;;;;;;;42.22;32.13;;;12.00;99.90;;;;;;5032124;28;20055;-73
2023/04/09 06:44:18;;;;;;;46.80;32.45;;;12.30;99.90;;;;;;5027918;28;20037;-77
2023/04/09 06:46:45;;;;;;;40.50;31.95;;;12.50;99.90;;;;;;5028098;28;20081;-78
2023/04/09 06:49:11;;;;;;;42.13;32.10;;;12.50;99.90;;;;;;5096674;27;20076;-77
2023/04/09 06:51:36;;;;;;;41.75;31.75;;;12.70;99.90;;;;;;5034131;28;20140;-77
2023/04/09 06:54:02;;;;;;;42.22;31.95;;;12.50;99.90;;;;;;5038827;28;20129;-75
2023/04/09 06:56:28;;;;;;;42.17;33.08;;;12.40;99.90;;;;;;5095260;27;20046;-79
2023/04/09 06:58:53;;;;;;;42.80;30.05;;;12.50;99.90;;;;;;5028772;28;20060;-75
2023/04/09 07:01:19;;;;;;;37.05;30.60;;;12.70;99.90;;;;;;5029701;28;20037;-77
2023/04/09 07:03:45;;;;;;;45.60;33.08;;;12.70;99.90;;;;;;5093516;27;20458;-74
2023/04/09 07:06:11;;;;;;;41.08;31.85;;;12.90;99.90;;;;;;5025972;27;21172;-78
2023/04/09 07:08:37;;;;;;;40.63;32.13;;;13.00;99.90;;;;;;5033459;28;20049;-76
2023/04/09 07:11:02;;;;;;;41.55;31.52;;;12.80;99.90;;;;;;5033136;27;20426;-76
2023/04/09 07:13:28;;;;;;;40.75;31.25;;;12.80;99.90;;;;;;5031738;27;20487;-77
2023/04/09 07:15:54;;;;;;;41.17;31.55;;;13.10;99.90;;;;;;5030616;28;20068;-76
2023/04/09 07:18:20;;;;;;;41.25;30.70;;;13.00;99.90;;;;;;5094110;27;20040;-76
2023/04/09 07:20:46;;;;;;;43.45;33.40;;;12.80;99.90;;;;;;5035665;27;20116;-75
2023/04/09 07:23:11;;;;;;;42.13;31.27;;;12.60;99.90;;;;;;5035262;27;20487;-76
2023/04/09 07:25:37;;;;;;;39.17;31.15;;;11.90;99.90;;;;;;5032056;28;20112;-77
2023/04/09 07:28:03;;;;;;;40.50;31.63;;;11.50;99.90;;;;;;5034570;27;20414;-78
2023/04/09 07:30:29;;;;;;;43.85;33.35;;;11.40;99.90;;;;;;5032763;27;20042;-77
2023/04/09 07:32:55;;;;;;;41.28;31.80;;;11.10;99.90;;;;;;5038930;28;20049;-75
2023/04/09 07:35:20;;;;;;;41.33;31.17;;;11.00;99.90;;;;;;5033928;27;20034;-75
2023/04/09 07:37:46;;;;;;;42.63;33.33;;;10.90;99.90;;;;;;5028662;28;20137;-75
2023/04/09 07:40:12;;;;;;;43.33;33.50;;;10.90;99.90;;;;;;5020542;28;21390;-76
2023/04/09 07:42:38;;;;;;;43.95;31.98;;;10.70;99.90;;;;;;5025941;27;20059;-75
2023/04/09 07:45:05;;;;;;;43.50;32.55;;;10.60;99.90;;;;;;5032691;27;20176;-76
2023/04/09 07:47:31;;;;;;;41.22;31.23;;;10.80;99.90;;;;;;5094085;28;20059;-75
2023/04/09 07:49:57;;;;;;;40.00;30.50;;;11.10;99.90;;;;;;5036635;28;20364;-75
2023/04/09 07:52:22;;;;;;;40.90;31.88;;;11.10;99.90;;;;;;5038515;27;20056;-75
2023/04/09 07:54:48;;;;;;;40.28;30.83;;;11.10;99.90;;;;;;5027335;27;20044;-75
2023/04/09 07:57:14;;;;;;;40.00;31.65;;;10.90;99.90;;;;;;5027857;27;20388;-75
2023/04/09 07:59:39;;;;;;;43.33;30.77;;;10.80;99.90;;;;;;5024850;27;20144;-75
2023/04/09 08:02:06;;;;;;;38.78;30.38;;;;;;;;;;5023020;27;20056;-75
2023/04/09 08:04:32;;;;;;;38.70;29.92;;;10.80;99.90;;;;;;5088844;28;20040;-75
2023/04/09 08:06:58;;;;;;;37.70;27.45;;;11.20;99.90;;;;;;5028973;27;20435;-75
2023/04/09 08:09:23;;;;;;;42.95;31.67;;;11.10;99.90;;;;;;5088690;28;20073;-75
2023/04/09 08:11:49;;;;;;;41.75;30.92;;;11.00;99.90;;;;;;5023786;27;20084;-75
2023/04/09 08:14:16;;;;;;;39.15;30.85;;;11.20;99.90;;;;;;5025994;28;20037;-75
2023/04/09 08:16:45;;;;;;;42.17;31.13;;;11.40;99.90;;;;;;5029206;28;20503;-75
2023/04/09 08:19:13;;;;;;;43.78;31.17;;;11.60;99.90;;;;;;5028780;28;20046;-75
2023/04/09 08:21:43;;;;;;;43.60;32.50;;;11.30;99.90;;;;;;5027049;28;20094;-75
2023/04/09 08:24:10;;;;;;;42.08;33.20;;;11.30;99.90;;;;;;5087451;28;20053;-75
2023/04/09 08:26:37;;;;;;;40.63;32.58;;;11.30;99.90;;;;;;5027723;28;20424;-75
2023/04/09 08:29:03;;;;;;;42.92;33.05;;;11.50;99.90;;;;;;5027717;28;20037;-75
2023/04/09 08:31:28;;;;;;;41.35;32.10;;;11.70;99.90;;;;;;5091957;28;20053;-75
2023/04/09 08:33:54;;;;;;;38.25;30.90;;;11.70;99.90;;;;;;5029973;28;20125;-75
2023/04/09 08:36:20;;;;;;;40.65;31.38;;;11.80;99.90;;;;;;5031420;28;20068;-74
2023/04/09 08:38:46;;;;;;;43.20;32.75;;;11.60;99.90;;;;;;5026213;27;20124;-74
2023/04/09 08:41:19;;;;;;;41.05;32.20;;;11.90;99.90;;;;;;5087568;28;20046;-75
2023/04/09 08:43:48;;;;;;;41.08;31.45;;;11.70;99.90;;;;;;5026972;28;20049;-75
2023/04/09 08:46:17;;;;;;;41.40;32.60;;;11.70;99.90;;;;;;5090924;28;20513;-75
2023/04/09 08:48:47;;;;;;;39.15;31.02;;;11.80;99.90;;;;;;5024382;28;20133;-75
2023/04/09 08:51:18;;;;;;;39.22;31.25;;;12.00;99.90;;;;;;5031042;27;20514;-75
2023/04/09 08:53:52;;;;;;;40.78;32.30;;;12.20;99.90;;;;;;5021932;27;20050;-75
2023/04/09 08:56:20;;;;;;;41.88;32.25;;;12.50;99.90;;;;;;5025492;28;20128;-78
2023/04/09 08:58:46;;;;;;;42.17;32.00;;;12.50;99.90;;;;;;5013180;28;20060;-75
2023/04/09 09:01:22;;;;;;;42.88;32.72;;;12.50;99.90;;;;;;4996531;28;20054;-75
2023/04/09 09:04:04;;;;;;;39.78;31.13;;;12.30;99.90;;;;;;5010423;28;20041;-75
2023/04/09 09:06:32;;;;;;;41.97;31.60;;;12.30;99.90;;;;;;5007645;28;20094;-75
2023/04/09 09:09:05;;;;;;;40.25;31.00;;;12.40;99.90;;;;;;5007104;28;20045;-75
2023/04/09 09:11:35;;;;;;;39.17;31.00;;;12.70;99.90;;;;;;5007511;28;21385;-76
2023/04/09 09:14:04;;;;;;;37.20;28.88;;;13.00;99.90;;;;;;5007438;28;20041;-75
2023/04/09 09:16:33;;;;;;;37.28;29.48;;;13.10;99.90;;;;;;5004572;28;20042;-75
2023/04/09 09:19:00;;;;;;;34.75;29.27;;;13.00;99.90;;;;;;4987070;28;20054;-75
2023/04/09 09:21:27;;;;;;;37.80;29.90;;;13.00;99.90;;;;;;5007870;28;20045;-75
2023/04/09 09:23:53;;;;;;;34.83;28.90;;;13.20;99.90;;;;;;5016786;28;20054;-76
2023/04/09 09:26:29;;;;;;;34.33;27.85;;;13.20;99.90;;;;;;5010438;28;20163;-76
2023/04/09 09:28:59;;;;;;;37.72;30.52;;;13.30;99.90;;;;;;5007984;28;20048;-75
2023/04/09 09:31:25;;;;;;;38.25;30.95;;;13.20;99.90;;;;;;5007759;28;20049;-75
2023/04/09 09:33:51;;;;;;;32.83;28.15;;;13.40;99.90;;;;;;5003811;28;20050;-77
2023/04/09 09:36:31;;;;;;;35.65;28.52;;;13.60;99.90;;;;;;5007585;28;20144;-76
2023/04/09 09:39:00;;;;;;;35.78;29.20;;;13.20;99.90;;;;;;5006063;28;20511;-76
2023/04/09 09:41:27;;;;;;;35.05;29.33;;;13.50;99.90;;;;;;5004314;28;20053;-76
2023/04/09 09:43:52;;;;;;;33.20;26.65;;;13.70;99.90;;;;;;5001864;28;20049;-76
2023/04/09 09:46:20;;;;;;;31.00;26.63;;;13.80;99.90;;;;;;5003216;28;20038;-76
2023/04/09 09:48:46;;;;;;;29.58;25.27;;;13.80;99.90;;;;;;5005743;28;20034;-75
2023/04/09 09:51:13;;;;;;;29.13;24.60;;;13.90;99.90;;;;;;4997574;28;20460;-74
2023/04/09 09:53:53;;;;;;;31.98;25.48;;;13.80;99.90;;;;;;5009229;28;20392;-75
2023/04/09 09:56:23;;;;;;;29.25;24.58;;;13.90;99.90;;;;;;5005550;28;20102;-76
2023/04/09 09:59:00;;;;;;;29.40;24.17;;;14.00;99.90;;;;;;5015946;28;20057;-76
2023/04/09 10:01:26;;;;;;;28.58;22.70;;;14.00;99.90;;;;;;5030172;28;20140;-76
2023/04/09 10:03:55;;;;;;;29.70;23.75;;;13.90;99.90;;;;;;5028277;28;20037;-77
2023/04/09 10:06:22;;;;;;;27.20;22.38;;;13.90;99.90;;;;;;5023578;28;20505;-76
2023/04/09 10:08:50;;;;;;;28.45;23.40;;;13.90;99.90;;;;;;5024310;28;20094;-76
2023/04/09 10:11:17;;;;;;;25.00;21.65;;;13.90;99.90;;;;;;5029705;28;20084;-76
2023/04/09 10:13:49;;;;;;;25.85;21.80;;;14.10;99.90;;;;;;5025753;28;20042;-76
2023/04/09 10:16:15;;;;;;;24.33;21.33;;;14.10;99.90;;;;;;5076356;28;20463;-76
2023/04/09 10:18:41;;;;;;;24.38;21.23;;;14.10;99.90;;;;;;5028169;28;20545;-76
2023/04/09 10:21:37;;;;;;;27.33;22.08;;;14.30;99.90;;;;;;5031602;28;20049;-76
2023/04/09 10:24:05;;;;;;;23.20;20.67;;;14.60;99.90;;;;;;5027403;28;20114;-77
2023/04/09 10:26:35;;;;;;;24.52;19.88;;;14.70;99.90;;;;;;5026834;28;20048;-76
2023/04/09 10:29:12;;;;;;;24.42;21.80;;;14.90;99.90;;;;;;5028534;28;20061;-77
2023/04/09 10:31:52;;;;;;;25.02;20.60;;;14.90;99.90;;;;;;5024490;28;20128;-76
2023/04/09 10:34:25;;;;;;;23.92;19.23;;;14.80;99.90;;;;;;5092092;28;20149;-76
2023/04/09 10:37:01;;;;;;;23.50;18.90;;;14.90;99.90;;;;;;5095144;28;20045;-76
2023/04/09 10:39:29;;;;;;;23.13;19.15;;;14.90;99.90;;;;;;5088310;28;20106;-77
2023/04/09 10:41:56;;;;;;;22.05;18.98;;;15.20;99.90;;;;;;5121113;27;20065;-77
2023/04/09 10:44:25;;;;;;;24.27;20.52;;;15.20;99.90;;;;;;5028919;28;20499;-77
2023/04/09 10:46:54;;;;;;;23.85;18.95;;;15.20;99.90;;;;;;5024743;28;20124;-77
2023/04/09 10:49:22;;;;;;;25.33;21.15;;;15.10;99.90;;;;;;5026809;28;20064;-77
2023/04/09 10:52:09;;;;;;;25.25;21.02;;;15.00;99.90;;;;;;5028004;28;20147;-77
2023/04/09 10:54:37;;;;;;;24.40;21.15;;;14.90;99.90;;;;;;5074056;28;20049;-76
2023/04/09 10:57:06;;;;;;;21.52;18.83;;;15.40;99.90;;;;;;5107177;28;20041;-76
2023/04/09 10:59:44;;;;;;;22.35;19.05;;;15.60;99.90;;;;;;5088450;28;20064;-76
2023/04/09 11:02:22;;;;;;;22.58;18.90;;;15.80;99.90;;;;;;5089568;28;20061;-77
2023/04/09 11:05:05;;;;;;;21.42;18.17;;;15.90;99.90;;;;;;5026016;28;20045;-77
2023/04/09 11:07:36;;;;;;;22.10;18.45;;;15.90;99.90;;;;;;5035985;28;20052;-76
2023/04/09 11:10:02;;;;;;;21.42;17.27;;;15.90;99.90;;;;;;5029569;28;20116;-77
2023/04/09 11:12:28;;;;;;;21.77;17.25;;;15.30;99.90;;;;;;5030072;27;20551;-77
2023/04/09 11:14:53;;;;;;;19.95;17.13;;;14.80;99.90;;;;;;5036780;27;20046;-77
2023/04/09 11:17:20;;;;;;;20.73;17.30;;;14.60;99.90;;;;;;5092681;28;20102;-77
2023/04/09 11:19:46;;;;;;;22.13;17.73;;;14.80;99.90;;;;;;5036762;27;20168;-77
2023/04/09 11:22:12;;;;;;;22.95;17.38;;;15.00;99.90;;;;;;5037840;27;20033;-77
2023/04/09 11:24:49;;;;;;;21.13;17.55;;;15.10;99.90;;;;;;5030967;27;20038;-77
2023/04/09 11:27:18;;;;;;;20.92;17.90;;;15.30;99.90;;;;;;5094666;27;20052;-77
2023/04/09 11:29:44;;;;;;;22.88;17.45;;;15.60;99.90;;;;;;5093101;28;20443;-77
2023/04/09 11:32:11;;;;;;;22.60;18.88;;;15.70;99.90;;;;;;5094747;27;20116;-77
2023/04/09 11:34:37;;;;;;;21.52;18.02;;;15.50;99.90;;;;;;5036427;27;20042;-77
2023/04/09 11:37:07;;;;;;;21.98;19.58;;;15.40;99.90;;;;;;5034886;28;20065;-77
2023/04/09 11:39:36;;;;;;;24.13;21.38;;;15.30;99.90;;;;;;5035162;28;20060;-77
2023/04/09 11:42:02;;;;;;;24.30;20.90;;;15.30;99.90;;;;;;5030095;27;20033;-77
2023/04/09 11:44:27;;;;;;;26.13;22.25;;;15.10;99.90;;;;;;5043141;27;20044;-77
2023/04/09 11:46:53;;;;;;;23.58;18.00;;;15.30;99.90;;;;;;5034123;27;20450;-77
2023/04/09 11:49:20;;;;;;;25.17;21.20;;;14.90;99.90;;;;;;5032495;27;20054;-76
2023/04/09 11:51:46;;;;;;;21.02;18.00;;;15.00;99.90;;;;;;5029225;28;20038;-77
2023/04/09 11:54:12;;;;;;;20.17;18.08;;;14.70;99.90;;;;;;5032207;27;20049;-78
2023/04/09 11:56:38;;;;;;;22.05;18.65;;;14.90;99.90;;;;;;5088097;27;20035;-77
2023/04/09 11:59:04;;;;;;;20.05;17.63;;;15.10;99.90;;;;;;5034236;27;20049;-77
2023/04/09 12:01:33;;;;;;;18.40;16.45;;;15.30;99.90;;;;;;5049958;27;20479;-77
2023/04/09 12:04:00;;;;;;;20.95;18.15;;;15.10;99.90;;;;;;5064849;27;20118;-77
2023/04/09 12:06:26;;;;;;;20.23;17.17;;;14.80;99.90;;;;;;5037246;27;20045;-77
2023/04/09 12:08:56;;;;;;;18.30;16.05;;;15.10;99.90;;;;;;5037541;27;20039;-77
2023/04/09 12:11:30;;;;;;;17.42;15.32;;;15.10;99.90;;;;;;5052451;27;20053;-77
2023/04/09 12:14:02;;;;;;;17.10;15.27;;;15.10;99.90;;;;;;5066427;27;20047;-77
2023/04/09 12:16:34;;;;;;;17.27;15.02;;;15.40;99.90;;;;;;5055279;27;20241;-77
2023/04/09 12:19:07;;;;;;;17.77;15.23;;;15.70;99.90;;;;;;5034913;27;20583;-77
2023/04/09 12:21:54;;;;;;;18.08;14.05;;;15.60;99.90;;;;;;5046336;27;20042;-77
2023/04/09 12:24:21;;;;;;;16.35;14.52;;;15.90;99.90;;;;;;5041225;27;20061;-77
2023/04/09 12:26:48;;;;;;;19.33;17.30;;;16.00;99.90;;;;;;5032358;28;20055;-77
2023/04/09 12:29:15;;;;;;;16.08;14.35;;;16.20;99.90;;;;;;5057686;27;20096;-77
2023/04/09 12:31:41;;;;;;;16.57;13.87;;;16.30;99.90;;;;;;5062745;27;20038;-77
2023/04/09 12:34:07;;;;;;;15.38;13.75;;;16.40;99.90;;;;;;5023758;27;21680;-77
2023/04/09 12:36:33;;;;;;;14.68;13.18;;;16.40;99.90;;;;;;5054360;27;20097;-77